createdAt,value
2023-05-04T00:01:22.331Z,2.00
2023-05-04T00:05:24.456Z,1.80
2023-05-04T00:09:27.010Z,2.03
2023-05-04T00:13:29.024Z,1.80
2023-05-04T00:17:31.853Z,1.90
2023-05-04T00:21:34.024Z,2.15
2023-05-04T00:25:36.080Z,1.88
2023-05-04T00:29:38.127Z,2.25
2023-05-04T00:33:40.157Z,1.98
2023-05-04T00:37:43.702Z,2.03
2023-05-04T00:41:45.882Z,2.20
2023-05-04T00:45:48.130Z,1.95
2023-05-04T00:49:52.060Z,1.90
2023-05-04T00:53:55.763Z,1.92
2023-05-04T00:57:57.842Z,2.00
2023-05-04T01:01:59.899Z,1.95
2023-05-04T01:06:07.881Z,2.25
2023-05-04T01:10:22.707Z,2.33
2023-05-04T01:14:25.828Z,1.90
2023-05-04T01:18:27.841Z,2.00
2023-05-04T01:22:30.076Z,2.03
2023-05-04T01:26:40.046Z,2.47
2023-05-04T01:30:49.754Z,2.10
2023-05-04T01:34:52.000Z,1.98
2023-05-04T01:38:55.647Z,2.42
2023-05-04T01:42:57.670Z,1.95
2023-05-04T01:46:59.718Z,1.85
2023-05-04T01:51:01.808Z,1.92
2023-05-04T01:55:03.988Z,2.40
2023-05-04T01:59:07.677Z,2.40
2023-05-04T02:03:09.852Z,2.33
2023-05-04T02:07:12.863Z,2.10
2023-05-04T02:11:16.233Z,2.17
2023-05-04T02:15:18.288Z,2.08
2023-05-04T02:19:20.382Z,2.33
2023-05-04T02:23:22.428Z,2.50
2023-05-04T02:27:24.416Z,2.22
2023-05-04T02:31:26.446Z,8.90
2023-05-04T02:35:28.470Z,8.27
2023-05-04T02:39:30.503Z,5.18
2023-05-04T02:43:32.590Z,2.45
2023-05-04T02:47:35.078Z,2.60
2023-05-04T02:51:37.112Z,3.22
2023-05-04T02:55:39.177Z,3.00
2023-05-04T02:59:41.237Z,2.72
2023-05-04T03:03:43.424Z,2.70
2023-05-04T03:07:45.501Z,2.92
2023-05-04T03:11:47.608Z,2.55
2023-05-04T03:15:49.960Z,2.70
2023-05-04T03:19:52.170Z,2.50
2023-05-04T03:23:54.342Z,2.60
2023-05-04T03:27:57.278Z,2.67
2023-05-04T03:31:59.379Z,2.38
2023-05-04T03:36:01.570Z,2.40
2023-05-04T03:40:04.342Z,2.47
2023-05-04T03:44:06.574Z,2.40
2023-05-04T03:48:09.964Z,2.50
2023-05-04T03:52:11.970Z,2.42
2023-05-04T03:56:14.266Z,2.47
2023-05-04T04:00:17.229Z,2.47
2023-05-04T04:04:26.416Z,2.60
2023-05-04T04:08:28.435Z,2.80
2023-05-04T04:12:30.539Z,2.67
2023-05-04T04:16:32.604Z,2.53
2023-05-04T04:20:34.777Z,2.90
2023-05-04T04:24:36.744Z,2.75
2023-05-04T04:28:38.752Z,2.35
2023-05-04T04:32:41.339Z,2.50
2023-05-04T04:36:43.944Z,2.63
2023-05-04T04:40:46.010Z,2.40
2023-05-04T04:44:49.460Z,2.95
2023-05-04T04:48:53.412Z,3.92
2023-05-04T04:52:55.885Z,4.18
2023-05-04T04:56:59.435Z,3.85
2023-05-04T05:01:04.509Z,3.45
2023-05-04T05:05:07.773Z,3.53
2023-05-04T05:09:09.864Z,3.60
2023-05-04T05:13:12.000Z,3.45
2023-05-04T05:17:14.041Z,3.47
2023-05-04T05:21:16.039Z,3.40
2023-05-04T05:25:18.987Z,3.30
2023-05-04T05:29:21.482Z,3.35
2023-05-04T05:33:23.836Z,3.15
2023-05-04T05:37:25.835Z,3.17
2023-05-04T05:41:27.821Z,2.92
2023-05-04T05:45:29.893Z,2.65
2023-05-04T05:49:32.043Z,2.30
2023-05-04T05:53:34.152Z,2.40
2023-05-04T05:57:36.181Z,2.70
2023-05-04T06:01:38.194Z,3.05
2023-05-04T06:05:40.558Z,3.20
2023-05-04T06:09:42.591Z,2.78
2023-05-04T06:13:44.674Z,2.95
2023-05-04T06:17:48.904Z,3.03
2023-05-04T06:21:51.063Z,2.72
2023-05-04T06:25:53.161Z,2.83
2023-05-04T06:29:55.580Z,2.38
2023-05-04T06:33:57.819Z,2.75
2023-05-04T06:37:59.882Z,2.10
2023-05-04T06:42:02.200Z,2.15
2023-05-04T06:46:09.957Z,2.10
2023-05-04T06:50:12.339Z,2.40
2023-05-04T06:54:14.356Z,2.17
2023-05-04T06:58:18.991Z,2.35
2023-05-04T07:02:21.008Z,1.88
2023-05-04T07:06:26.348Z,3.15
2023-05-04T07:10:28.840Z,2.70
2023-05-04T07:14:30.868Z,2.40
2023-05-04T07:18:32.965Z,2.47
2023-05-04T07:22:35.087Z,2.40
2023-05-04T07:26:37.229Z,3.30
2023-05-04T07:30:39.251Z,3.47
2023-05-04T07:34:46.327Z,3.55
2023-05-04T07:38:48.625Z,3.85
2023-05-04T07:42:50.786Z,4.22
2023-05-04T07:46:52.790Z,3.30
2023-05-04T07:50:54.817Z,3.53
2023-05-04T07:54:56.860Z,3.63
2023-05-04T07:58:58.946Z,4.20
2023-05-04T08:03:00.986Z,3.55
2023-05-04T08:07:03.052Z,3.70
2023-05-04T08:11:18.681Z,3.60
2023-05-04T08:15:22.355Z,3.58
2023-05-04T08:19:24.520Z,3.40
2023-05-04T08:23:26.763Z,3.70
2023-05-04T08:27:28.834Z,3.78
2023-05-04T08:31:30.895Z,4.22
2023-05-04T08:35:32.984Z,3.80
2023-05-04T08:39:35.104Z,4.10
2023-05-04T08:43:37.405Z,3.85
2023-05-04T08:47:42.906Z,3.83
2023-05-04T08:51:46.113Z,4.18
2023-05-04T08:55:51.211Z,4.25
2023-05-04T08:59:54.691Z,4.40
2023-05-04T09:03:57.915Z,4.70
2023-05-04T09:08:00.081Z,4.15
2023-05-04T09:12:02.084Z,4.15
2023-05-04T09:16:04.717Z,5.03
2023-05-04T09:20:07.431Z,5.68
2023-05-04T09:24:09.634Z,5.95
2023-05-04T09:28:11.763Z,5.60
2023-05-04T09:32:16.379Z,5.70
2023-05-04T09:36:21.009Z,5.43
2023-05-04T09:40:36.033Z,6.55
2023-05-04T09:44:38.151Z,6.25
2023-05-04T09:48:50.851Z,5.90
2023-05-04T09:52:54.612Z,5.82
2023-05-04T09:57:05.616Z,5.55
2023-05-04T10:01:08.215Z,5.95
2023-05-04T10:05:14.821Z,5.18
2023-05-04T10:09:18.060Z,5.85
2023-05-04T10:13:20.056Z,5.72
2023-05-04T10:17:59.704Z,4.85
2023-05-04T10:22:26.386Z,5.60
2023-05-04T10:27:03.048Z,5.35
2023-05-04T10:31:07.315Z,4.68
2023-05-04T10:35:10.444Z,4.60
2023-05-04T10:39:18.776Z,4.63
2023-05-04T10:43:29.089Z,7.53
2023-05-04T10:47:35.624Z,5.03
2023-05-04T10:51:48.553Z,4.57
2023-05-04T10:55:51.563Z,4.43
2023-05-04T10:59:59.063Z,4.82
2023-05-04T11:04:01.529Z,3.80
2023-05-04T11:08:18.192Z,4.07
2023-05-04T11:12:20.328Z,4.18
2023-05-04T11:16:26.848Z,3.47
2023-05-04T11:20:29.024Z,3.83
2023-05-04T11:24:46.468Z,3.63
2023-05-04T11:32:50.436Z,4.00
2023-05-04T11:36:54.513Z,4.20
2023-05-04T11:40:56.667Z,3.70
2023-05-04T11:44:58.855Z,3.30
2023-05-04T11:49:01.185Z,2.80
2023-05-04T11:53:12.166Z,4.20
2023-05-04T11:57:23.427Z,3.28
2023-05-04T12:01:25.619Z,2.78
2023-05-04T12:05:28.415Z,2.88
2023-05-04T12:09:30.657Z,3.17
2023-05-04T12:13:32.706Z,3.10
2023-05-04T12:17:43.979Z,2.72
2023-05-04T12:21:53.316Z,3.10
2023-05-04T12:25:58.468Z,2.65
2023-05-04T12:30:00.736Z,2.40
2023-05-04T12:34:02.725Z,2.42
2023-05-04T12:38:04.789Z,2.30
2023-05-04T12:42:06.819Z,2.60
2023-05-04T12:46:09.140Z,2.20
2023-05-04T12:50:11.241Z,2.40
2023-05-04T12:54:13.290Z,2.30
2023-05-04T12:58:15.382Z,2.75
2023-05-04T13:02:17.483Z,3.00
2023-05-04T13:06:19.772Z,2.40
2023-05-04T13:10:21.971Z,2.20
2023-05-04T13:14:24.079Z,2.13
2023-05-04T13:18:27.523Z,2.20
2023-05-04T13:22:29.873Z,2.42
2023-05-04T13:26:32.200Z,1.90
2023-05-04T13:30:34.231Z,2.10
2023-05-04T13:34:36.441Z,8.82
2023-05-04T13:38:38.595Z,2.17
2023-05-04T13:42:40.647Z,2.10
2023-05-04T13:46:42.751Z,2.33
2023-05-04T13:50:44.830Z,2.30
2023-05-04T13:54:46.905Z,2.20
2023-05-04T13:58:48.970Z,1.90
2023-05-04T14:02:51.084Z,2.72
2023-05-04T14:06:54.019Z,3.33
2023-05-04T14:10:56.577Z,2.10
2023-05-04T14:14:59.077Z,2.00
2023-05-04T14:19:01.202Z,2.55
2023-05-04T14:23:03.273Z,2.60
2023-05-04T14:27:05.449Z,2.20
2023-05-04T14:31:10.159Z,2.35
2023-05-04T14:35:12.519Z,2.17
2023-05-04T14:39:14.547Z,2.10
2023-05-04T14:43:16.835Z,2.15
2023-05-04T14:47:20.120Z,2.20
2023-05-04T14:51:30.342Z,2.20
2023-05-04T14:55:33.548Z,1.98
2023-05-04T14:59:35.644Z,2.28
2023-05-04T15:03:38.979Z,2.00
2023-05-04T15:07:41.158Z,2.20
2023-05-04T15:11:43.231Z,2.00
2023-05-04T15:15:45.442Z,2.05
2023-05-04T15:19:47.396Z,2.28
2023-05-04T15:23:49.369Z,1.98
2023-05-04T15:27:51.342Z,2.00
2023-05-04T15:31:54.597Z,2.10
2023-05-04T15:35:56.703Z,2.22
2023-05-04T15:40:01.119Z,1.80
2023-05-04T15:44:07.632Z,2.10
2023-05-04T15:48:09.717Z,1.92
2023-05-04T15:52:11.757Z,1.80
2023-05-04T15:56:15.409Z,2.05
2023-05-04T16:00:17.816Z,1.88
2023-05-04T16:04:20.185Z,1.95
2023-05-04T16:08:22.286Z,2.10
2023-05-04T16:12:24.295Z,2.08
2023-05-04T16:16:26.526Z,2.05
2023-05-04T16:20:28.782Z,2.00
2023-05-04T16:24:31.374Z,2.15
2023-05-04T16:28:34.852Z,1.83
2023-05-04T16:32:37.167Z,2.45
2023-05-04T16:36:39.251Z,2.20
2023-05-04T16:40:42.055Z,1.80
2023-05-04T16:44:44.094Z,1.90
2023-05-04T16:48:46.218Z,1.70
2023-05-04T16:52:48.201Z,1.90
2023-05-04T16:56:50.330Z,1.83
2023-05-04T17:00:52.347Z,2.03
2023-05-04T17:04:54.332Z,1.88
2023-05-04T17:08:56.401Z,2.15
2023-05-04T17:12:59.736Z,1.85
2023-05-04T17:17:03.728Z,1.80
2023-05-04T17:21:05.863Z,2.88
2023-05-04T17:25:09.569Z,1.95
2023-05-04T17:29:12.024Z,2.08
2023-05-04T17:33:14.184Z,2.10
2023-05-04T17:37:16.431Z,1.40
2023-05-04T17:41:18.648Z,1.45
2023-05-04T17:45:21.464Z,1.52
2023-05-04T17:49:23.475Z,1.60
2023-05-04T17:53:29.275Z,1.70
2023-05-04T17:57:31.350Z,1.70
2023-05-04T18:01:33.414Z,1.58
2023-05-04T18:05:35.650Z,1.63
2023-05-04T18:09:37.816Z,1.58
2023-05-04T18:13:39.808Z,1.58
2023-05-04T18:17:41.909Z,1.65
2023-05-04T18:21:43.931Z,1.80
2023-05-04T18:25:45.972Z,1.63
2023-05-04T18:29:48.656Z,1.50
2023-05-04T18:33:50.673Z,1.70
2023-05-04T18:37:52.663Z,1.52
2023-05-04T18:41:54.622Z,1.50
2023-05-04T18:45:56.878Z,1.73
2023-05-04T18:49:59.875Z,1.77
2023-05-04T18:54:02.161Z,2.35
2023-05-04T18:58:04.296Z,2.10
2023-05-04T19:02:07.139Z,2.20
2023-05-04T19:06:09.143Z,2.60
2023-05-04T19:10:11.616Z,2.70
2023-05-04T19:14:13.782Z,2.10
2023-05-04T19:18:16.957Z,2.20
2023-05-04T19:22:18.983Z,2.20
2023-05-04T19:26:21.446Z,2.30
2023-05-04T19:30:23.548Z,2.45
2023-05-04T19:34:25.623Z,2.42
2023-05-04T19:38:27.854Z,2.53
2023-05-04T19:42:29.845Z,2.30
2023-05-04T19:46:32.013Z,2.20
2023-05-04T19:50:34.081Z,3.40
2023-05-04T19:54:38.097Z,2.85
2023-05-04T19:58:40.222Z,3.00
2023-05-04T20:02:42.548Z,3.05
2023-05-04T20:06:44.690Z,3.17
2023-05-04T20:10:46.877Z,4.40
2023-05-04T20:14:48.890Z,3.20
2023-05-04T20:18:51.008Z,3.10
2023-05-04T20:22:53.121Z,3.30
2023-05-04T20:26:55.135Z,3.90
2023-05-04T20:30:57.279Z,3.17
2023-05-04T20:34:59.389Z,3.00
2023-05-04T20:39:02.451Z,3.55
2023-05-04T20:43:05.122Z,3.30
2023-05-04T20:47:07.116Z,3.58
2023-05-04T20:51:14.406Z,3.10
2023-05-04T20:55:17.736Z,3.38
2023-05-04T20:59:19.733Z,2.90
2023-05-04T21:03:21.789Z,2.67
2023-05-04T21:07:23.893Z,2.78
2023-05-04T21:11:25.901Z,2.97
2023-05-04T21:15:27.938Z,2.67
2023-05-04T21:19:29.994Z,2.78
2023-05-04T21:23:32.396Z,2.70
2023-05-04T21:27:34.441Z,2.58
2023-05-04T21:31:36.530Z,2.55
2023-05-04T21:35:38.693Z,2.60
2023-05-04T21:39:40.707Z,2.95
2023-05-04T21:43:43.377Z,2.72
2023-05-04T21:47:45.767Z,2.42
2023-05-04T21:51:47.773Z,2.33
2023-05-04T21:55:49.782Z,2.60
2023-05-04T21:59:51.900Z,2.60
2023-05-04T22:03:53.903Z,2.50
2023-05-04T22:07:55.917Z,2.35
2023-05-04T22:11:58.639Z,2.50
2023-05-04T22:16:00.784Z,2.47
2023-05-04T22:20:03.218Z,2.20
2023-05-04T22:24:05.747Z,2.20
2023-05-04T22:28:07.799Z,1.70
2023-05-04T22:32:09.815Z,1.70
2023-05-04T22:36:12.532Z,2.08
2023-05-04T22:40:14.689Z,2.08
2023-05-04T22:44:16.712Z,1.80
2023-05-04T22:48:20.003Z,2.13
2023-05-04T22:52:22.733Z,2.05
2023-05-04T22:56:25.567Z,1.77
2023-05-04T23:00:27.806Z,1.80
2023-05-04T23:04:30.148Z,2.00
2023-05-04T23:08:32.147Z,1.92
2023-05-04T23:12:34.262Z,1.80
2023-05-04T23:16:36.338Z,1.80
2023-05-04T23:20:38.359Z,1.70
2023-05-04T23:24:40.530Z,1.63
2023-05-04T23:28:42.628Z,1.60
2023-05-04T23:32:44.768Z,2.00
2023-05-04T23:36:46.833Z,2.33
2023-05-04T23:40:49.120Z,1.95
2023-05-04T23:44:54.064Z,1.80
2023-05-04T23:48:56.125Z,1.60
2023-05-04T23:52:58.129Z,1.70
2023-05-04T23:57:00.148Z,1.90
